Notice: Undefined index: language in /var/www/vam/vam/index.php on line 25

 Air Côte d'Ivoire Virtuel



 METAR AND TAF INFORMATION
METAR FOR FOOL
ADDS - METARS form results

(1301 UTC 17 July 2019)
Data provider http://aviationweather.gov/metar/data/
 
METAR text: FOOL 171300Z 24006KT 9999 SCT015 29/23 Q1013 NOSIG
Conditions at: FOOL (LIBREVILLE/LEON , GA) observed 1300 UTC 17 July 2019
Temperature: 29.0°C (84°F)
Dewpoint: 23.0°C (73°F) [RH = 70%]
Pressure (altimeter): 29.91 inches Hg (1013.0 mb)
Winds: from the WSW (240 degrees) at 7 MPH (6 knots; 3.1 m/s)
Visibility: 6 or more miles (10+ km)
Ceiling: at least 12,000 feet AGL
Clouds: scattered clouds at 1500 feet AGL
Weather: no significant weather observed at this time

METAR text: FOOL 171230Z 24005KT 200V270 9999 ////// 29/23 Q1013 NOSIG
Conditions at: FOOL (LIBREVILLE/LEON , GA) observed 1230 UTC 17 July 2019
Temperature: 29.0°C (84°F)
Dewpoint: 23.0°C (73°F) [RH = 70%]
Pressure (altimeter): 29.91 inches Hg (1013.0 mb)
Winds: from the WSW (240 degrees) at 6 MPH (5 knots; 2.6 m/s)
Visibility: 6 or more miles (10+ km)
Ceiling: unknown
Clouds: missing
Weather: no significant weather observed at this time

Forecast for: FOOL (LIBREVILLE/LEON , GA)
Text: TAF FOOL 171052Z 1712/1818 18008KT 9999 FEW013
Forecast period: 1200 UTC 17 July 2019 to 0400 UTC 18 July 2019
Forecast type: FROM: standard forecast or significant change
Winds: from the S (180 degrees) at 9 MPH (8 knots; 4.1 m/s)
Visibility: 6 or more miles 10+ km)
Ceiling: at least 12,000 feet AGL
Clouds: few clouds at 1300 feet AGL
Weather: no significant weather forecast for this period
Text: BECMG 1804/1808 BKN008 OVC030
Forecast period: 0400 to 1800 UTC 18 July 2019
Forecast type: BECOMING: Conditions expected to become as follows by 0800 UTC 18 July 2019
Winds: from the S (180 degrees) at 9 MPH (8 knots; 4.1 m/s)
Visibility: 6 or more miles 10+ km)
Ceiling: 800 feet AGL
Clouds: broken clouds at 800 feet AGL
overcast cloud deck at 3000 feet AGL
Weather: no significant weather forecast for this period

 AIRPORT MAP

 RUNWAY INFORMATION
Runway 16 Runway length 9844 ft Runway width 148 ft
Runway elevation 29 ft Runway displaced threshold 0 ft Runway heading 154
Runway 34 Runway length 9844 ft Runway width 148 ft
Runway elevation 28 ft Runway displaced threshold 0 ft Runway heading 334

 AIRPORT FREQUENCIES
Type A/G Name A/G VOICE Frequency 655.9 MHZ
Type RDO Name LIBREVILLE Frequency 666.6 MHZ
Type TWR Name TWR Frequency 118.7 MHZ

 AIRPORT NEAR NAVIGATION AIDS
Type VOR-DME Name Libreville Frequency 112100 KHZ